Terminal Aerodrome Forecast
Issued by NWS Billings, MT

Home | Current Version | Previous Version | Text Only | Print | Product List | Glossary Off
Versions: 1 2 3 4 5 6 7 8 9 10 11 12 13 14 15 16 17 18 19 20 21 22 23 24 25 26 27 28 29 30 31 32 33 34 35 36 37 38 39 40 41

000
FTUS45 KBYZ 301700
TAFMLS
TAF
KMLS 301720Z 3018/0118 30008KT P6SM -RA FEW012 OVC060
      TEMPO 3018/3021 BKN015
     FM302100 33014G21KT P6SM -RA FEW012 BKN040
     FM010600 31015G22KT P6SM OVC050=

USA.gov is the U.S. government's official web portal to all federal, state and local government web resources and services.